Ancona, IL

3:34 AM CDT on March 26, 2017 (GMT -0500)
MD9672 | | Change Station

Elev 557 ft 41.13 °N, 88.85 °W | Updated 7 minutes ago

Overcast
Overcast
55.0 °F
Feels Like 55.0 °F
N
1.0
Wind Variable Wind from SSW
Gusts 6.0 mph

Today
High -- | Low -- °F
--% Chance of Precip.
Yesterday
High -- | Low -- °F
Precip. -- in
Pressure 29.85 in
Visibility 10.0 miles
Clouds Scattered Clouds 3500 ft
Mostly Cloudy 4800 ft
Overcast 5000 ft
Dew Point 54 °F
Humidity 97%
Rainfall 0.38 in
Snow Depth Not available.
6:48 AM 7:14 PM
Waning Crescent, 4% visible
METAR KPNT 260815Z AUTO 12009KT 10SM SCT035 BKN048 OVC050 13/13 A2985 RMK AO2 T01300127
Pressure 29.85 in
Visibility 10.0 miles
Clouds Scattered Clouds 3500 ft
Mostly Cloudy 4800 ft
Overcast 5000 ft
Dew Point 54 °F
Humidity 97%
Rainfall 0.38 in
Snow Depth Not available.
6:48 AM 7:14 PM
Waning Crescent, 4% visible
METAR KPNT 260815Z AUTO 12009KT 10SM SCT035 BKN048 OVC050 13/13 A2985 RMK AO2 T01300127

Get Severe Weather Alerts

Thanks for signing up!

Be on the lookout for a verification email in your inbox.

You'll start receiving the daily forecast at 8 AM.

×

10-Day Weather Forecast

Almanac

Astronomy

Mar. 26, 2017 Rise Set
Actual Time
Civil Twilight
Nautical Twilight
Astronomical Twilight
Moon
Length of Visible Light
Length of Day
Tomorrow will be .
, % of the Moon is Illuminated

Today's Extremes

State Highs State Lows

Community

WunderPhotos

Upload Photos

1,962,540 photos uploaded!

WunderBlog® & News

Nearby

Air Quality

  Air Quality AQ Index Pollutant
Not available.

Snow Depth

Station Depth Elevation

Earthquake Activity

City Distance Mag. Time & Date
Minimum magnitude displayed is 2.5.

Earthquake Activity

City Distance Mag. Time & Date
Minimum magnitude displayed is 2.5.

Coastal Water Temperatures

Place Temperature

Stations

Nearby Weather Stations

Station Location Temp. Windchill Dew Point Humidity Wind Precip. Elev Updated Type
                   

Watches & Warnings

There are currently no watches in effect.